CheckWX is a tool to help pilots better visualize weather data.  It is not intended as a substitute for an official pre-flight weather briefing.

05:23:11 UTC

ENNE METAR
Norne Fpso Oilp
Norne Fpso Oilp, Norway
Current

33 mins ago

ENNE 200450Z 08013KT 9999 FEW040 BKN080 02/M08 Q1008 W///S5
Observed
Feb-20 @ 04:50 UTC
Wind
  • 080° at 13 KTS
Visibility
10,000+ meters
Flight Rules
VFR
Cloud Levels
  • Few at 4,000' AGL
  • Broken at 8,000' AGL
Temperature
C / 36°F
Dewpoint
-8°C / 18°F
Humidity
48%
Altimeter
29.76" Hg
Pressure
1007.92 hPa
Previous

1 hour ago

ENNE 200420Z 08013KT 9999 FEW040 BKN080 02/M08 Q1008 W///S5
Observed
Feb-20 @ 04:20 UTC
Wind
  • 080° at 13 KTS
Visibility
10,000+ meters
Flight Rules
VFR
Cloud Levels
  • Few at 4,000' AGL
  • Broken at 8,000' AGL
Temperature
C / 36°F
Dewpoint
-8°C / 18°F
Humidity
48%
Altimeter
29.76" Hg
Pressure
1007.92 hPa
Previous

2 hours ago

ENNE 200350Z AUTO 07011KT 9999NDV FEW048/// BKN080/// 02/M08 Q1008 W///S5
Observed
Feb-20 @ 03:50 UTC
Wind
  • 070° at 11 KTS
Visibility
Cloud Levels
  • Few at 4,800' AGL
  • Broken at 8,000' AGL
Temperature
C / 36°F
Dewpoint
-8°C / 18°F
Humidity
48%
Altimeter
29.76" Hg
Pressure
1007.92 hPa